sensor_id;sensor_type;location;lat;lon;timestamp;P1;durP1;ratioP1;P2;durP2;ratioP2
60612;SDS011;46443;59.792;17.626;2024-03-06T00:01:47;9.23;;;3.70;;
60612;SDS011;46443;59.792;17.626;2024-03-06T00:04:14;7.38;;;3.78;;
60612;SDS011;46443;59.792;17.626;2024-03-06T00:06:40;8.25;;;3.58;;
60612;SDS011;46443;59.792;17.626;2024-03-06T00:09:06;6.32;;;3.42;;
60612;SDS011;46443;59.792;17.626;2024-03-06T00:11:33;6.32;;;3.40;;
60612;SDS011;46443;59.792;17.626;2024-03-06T00:14:02;6.68;;;3.22;;
60612;SDS011;46443;59.792;17.626;2024-03-06T00:16:28;7.40;;;3.92;;
60612;SDS011;46443;59.792;17.626;2024-03-06T00:18:54;7.65;;;3.63;;
60612;SDS011;46443;59.792;17.626;2024-03-06T00:21:20;7.15;;;3.58;;
60612;SDS011;46443;59.792;17.626;2024-03-06T00:23:46;7.30;;;3.47;;
60612;SDS011;46443;59.792;17.626;2024-03-06T00:26:12;7.68;;;3.50;;
60612;SDS011;46443;59.792;17.626;2024-03-06T00:28:38;7.40;;;3.58;;
60612;SDS011;46443;59.792;17.626;2024-03-06T00:31:05;7.50;;;3.50;;
60612;SDS011;46443;59.792;17.626;2024-03-06T00:33:31;6.53;;;3.38;;
60612;SDS011;46443;59.792;17.626;2024-03-06T00:35:57;9.07;;;3.50;;
60612;SDS011;46443;59.792;17.626;2024-03-06T00:38:23;7.05;;;3.47;;
60612;SDS011;46443;59.792;17.626;2024-03-06T00:40:49;7.82;;;3.55;;
60612;SDS011;46443;59.792;17.626;2024-03-06T00:43:15;9.57;;;3.90;;
60612;SDS011;46443;59.792;17.626;2024-03-06T00:45:41;9.57;;;3.97;;
60612;SDS011;46443;59.792;17.626;2024-03-06T00:48:08;7.43;;;3.42;;
60612;SDS011;46443;59.792;17.626;2024-03-06T00:50:34;7.05;;;3.50;;
60612;SDS011;46443;59.792;17.626;2024-03-06T00:53:00;8.10;;;3.60;;
60612;SDS011;46443;59.792;17.626;2024-03-06T00:55:26;7.18;;;3.22;;
60612;SDS011;46443;59.792;17.626;2024-03-06T00:57:52;7.95;;;3.33;;
60612;SDS011;46443;59.792;17.626;2024-03-06T01:00:19;6.38;;;3.60;;
60612;SDS011;46443;59.792;17.626;2024-03-06T01:02:45;7.07;;;3.40;;
60612;SDS011;46443;59.792;17.626;2024-03-06T01:05:11;7.78;;;3.53;;
60612;SDS011;46443;59.792;17.626;2024-03-06T01:07:37;6.80;;;3.42;;
60612;SDS011;46443;59.792;17.626;2024-03-06T01:10:04;6.07;;;3.20;;
60612;SDS011;46443;59.792;17.626;2024-03-06T01:12:34;6.57;;;3.15;;
60612;SDS011;46443;59.792;17.626;2024-03-06T01:15:00;6.80;;;3.10;;
60612;SDS011;46443;59.792;17.626;2024-03-06T01:17:26;7.45;;;3.63;;
60612;SDS011;46443;59.792;17.626;2024-03-06T01:19:52;8.73;;;3.85;;
60612;SDS011;46443;59.792;17.626;2024-03-06T01:22:18;5.68;;;3.10;;
60612;SDS011;46443;59.792;17.626;2024-03-06T01:24:44;6.97;;;3.55;;
60612;SDS011;46443;59.792;17.626;2024-03-06T01:27:14;6.20;;;3.05;;
60612;SDS011;46443;59.792;17.626;2024-03-06T01:29:40;6.77;;;3.40;;
60612;SDS011;46443;59.792;17.626;2024-03-06T01:32:07;6.30;;;3.42;;
60612;SDS011;46443;59.792;17.626;2024-03-06T01:34:35;7.97;;;3.92;;
60612;SDS011;46443;59.792;17.626;2024-03-06T01:37:01;7.85;;;3.58;;
60612;SDS011;46443;59.792;17.626;2024-03-06T01:39:27;7.55;;;3.55;;
60612;SDS011;46443;59.792;17.626;2024-03-06T01:41:53;6.22;;;3.10;;
60612;SDS011;46443;59.792;17.626;2024-03-06T01:44:19;5.03;;;3.00;;
60612;SDS011;46443;59.792;17.626;2024-03-06T01:46:45;5.10;;;2.85;;
60612;SDS011;46443;59.792;17.626;2024-03-06T01:49:12;6.47;;;3.22;;
60612;SDS011;46443;59.792;17.626;2024-03-06T01:51:38;6.40;;;3.33;;
60612;SDS011;46443;59.792;17.626;2024-03-06T01:54:05;6.75;;;3.60;;
60612;SDS011;46443;59.792;17.626;2024-03-06T01:56:31;7.15;;;3.20;;
60612;SDS011;46443;59.792;17.626;2024-03-06T01:58:58;6.05;;;3.30;;
60612;SDS011;46443;59.792;17.626;2024-03-06T02:01:24;6.68;;;3.53;;
60612;SDS011;46443;59.792;17.626;2024-03-06T02:03:51;8.77;;;3.53;;
60612;SDS011;46443;59.792;17.626;2024-03-06T02:06:17;7.93;;;3.30;;
60612;SDS011;46443;59.792;17.626;2024-03-06T02:08:47;8.52;;;3.63;;
60612;SDS011;46443;59.792;17.626;2024-03-06T02:11:14;6.00;;;3.60;;
60612;SDS011;46443;59.792;17.626;2024-03-06T02:13:42;7.20;;;3.78;;
60612;SDS011;46443;59.792;17.626;2024-03-06T02:16:09;5.97;;;2.85;;
60612;SDS011;46443;59.792;17.626;2024-03-06T02:18:35;7.38;;;3.65;;
60612;SDS011;46443;59.792;17.626;2024-03-06T02:21:02;5.07;;;3.00;;
60612;SDS011;46443;59.792;17.626;2024-03-06T02:23:29;7.18;;;3.35;;
60612;SDS011;46443;59.792;17.626;2024-03-06T02:25:56;8.30;;;3.63;;
60612;SDS011;46443;59.792;17.626;2024-03-06T02:28:22;6.30;;;3.13;;
60612;SDS011;46443;59.792;17.626;2024-03-06T02:30:51;8.70;;;3.67;;
60612;SDS011;46443;59.792;17.626;2024-03-06T02:33:17;8.30;;;3.30;;
60612;SDS011;46443;59.792;17.626;2024-03-06T02:35:43;7.40;;;3.22;;
60612;SDS011;46443;59.792;17.626;2024-03-06T02:38:11;6.88;;;3.65;;
60612;SDS011;46443;59.792;17.626;2024-03-06T02:40:37;6.65;;;3.70;;
60612;SDS011;46443;59.792;17.626;2024-03-06T02:43:03;6.30;;;3.13;;
60612;SDS011;46443;59.792;17.626;2024-03-06T02:45:30;6.60;;;3.60;;
60612;SDS011;46443;59.792;17.626;2024-03-06T02:47:56;7.68;;;3.13;;
60612;SDS011;46443;59.792;17.626;2024-03-06T02:50:22;5.10;;;2.80;;
60612;SDS011;46443;59.792;17.626;2024-03-06T02:52:48;6.18;;;2.85;;
60612;SDS011;46443;59.792;17.626;2024-03-06T02:55:16;6.65;;;3.58;;
60612;SDS011;46443;59.792;17.626;2024-03-06T02:57:42;6.22;;;3.13;;
60612;SDS011;46443;59.792;17.626;2024-03-06T03:00:08;6.82;;;3.13;;
60612;SDS011;46443;59.792;17.626;2024-03-06T03:02:38;5.60;;;2.70;;
60612;SDS011;46443;59.792;17.626;2024-03-06T03:05:05;7.03;;;2.63;;
60612;SDS011;46443;59.792;17.626;2024-03-06T03:07:31;6.32;;;3.10;;
60612;SDS011;46443;59.792;17.626;2024-03-06T03:09:57;9.77;;;3.05;;
60612;SDS011;46443;59.792;17.626;2024-03-06T03:12:23;6.60;;;2.92;;
60612;SDS011;46443;59.792;17.626;2024-03-06T03:14:50;7.72;;;2.70;;
60612;SDS011;46443;59.792;17.626;2024-03-06T03:17:17;8.45;;;3.20;;
60612;SDS011;46443;59.792;17.626;2024-03-06T03:19:44;6.45;;;3.05;;
60612;SDS011;46443;59.792;17.626;2024-03-06T03:22:10;5.93;;;2.95;;
60612;SDS011;46443;59.792;17.626;2024-03-06T03:24:38;5.68;;;2.78;;
60612;SDS011;46443;59.792;17.626;2024-03-06T03:27:04;6.50;;;2.80;;
60612;SDS011;46443;59.792;17.626;2024-03-06T03:29:31;6.25;;;3.05;;
60612;SDS011;46443;59.792;17.626;2024-03-06T03:31:58;6.63;;;3.33;;
60612;SDS011;46443;59.792;17.626;2024-03-06T03:34:24;7.40;;;3.28;;
60612;SDS011;46443;59.792;17.626;2024-03-06T03:36:50;5.68;;;2.88;;
60612;SDS011;46443;59.792;17.626;2024-03-06T03:39:17;6.35;;;2.97;;
60612;SDS011;46443;59.792;17.626;2024-03-06T03:41:46;6.90;;;2.78;;
60612;SDS011;46443;59.792;17.626;2024-03-06T03:44:15;6.55;;;3.10;;
60612;SDS011;46443;59.792;17.626;2024-03-06T03:46:42;7.05;;;3.15;;
60612;SDS011;46443;59.792;17.626;2024-03-06T03:49:08;4.55;;;2.63;;
60612;SDS011;46443;59.792;17.626;2024-03-06T03:51:35;5.38;;;2.47;;
60612;SDS011;46443;59.792;17.626;2024-03-06T03:54:01;5.60;;;2.90;;
60612;SDS011;46443;59.792;17.626;2024-03-06T03:56:27;5.55;;;2.50;;
60612;SDS011;46443;59.792;17.626;2024-03-06T03:58:54;4.78;;;2.45;;
60612;SDS011;46443;59.792;17.626;2024-03-06T04:01:20;6.13;;;2.63;;
60612;SDS011;46443;59.792;17.626;2024-03-06T04:03:48;4.72;;;2.40;;
60612;SDS011;46443;59.792;17.626;2024-03-06T04:06:14;5.40;;;2.90;;
60612;SDS011;46443;59.792;17.626;2024-03-06T04:08:40;6.07;;;2.78;;
60612;SDS011;46443;59.792;17.626;2024-03-06T04:11:06;6.38;;;2.90;;
60612;SDS011;46443;59.792;17.626;2024-03-06T04:13:38;7.38;;;3.13;;
60612;SDS011;46443;59.792;17.626;2024-03-06T04:16:04;5.22;;;2.53;;
60612;SDS011;46443;59.792;17.626;2024-03-06T04:18:31;4.95;;;2.53;;
60612;SDS011;46443;59.792;17.626;2024-03-06T04:21:06;6.97;;;3.05;;
60612;SDS011;46443;59.792;17.626;2024-03-06T04:23:34;5.03;;;2.55;;
60612;SDS011;46443;59.792;17.626;2024-03-06T04:26:00;8.63;;;3.88;;
60612;SDS011;46443;59.792;17.626;2024-03-06T04:28:27;5.88;;;2.90;;
60612;SDS011;46443;59.792;17.626;2024-03-06T04:30:53;5.78;;;2.67;;
60612;SDS011;46443;59.792;17.626;2024-03-06T04:33:19;7.40;;;2.80;;
60612;SDS011;46443;59.792;17.626;2024-03-06T04:35:45;6.22;;;2.80;;
60612;SDS011;46443;59.792;17.626;2024-03-06T04:38:11;6.32;;;2.70;;
60612;SDS011;46443;59.792;17.626;2024-03-06T04:40:38;6.25;;;2.90;;
60612;SDS011;46443;59.792;17.626;2024-03-06T04:43:05;5.88;;;2.80;;
60612;SDS011;46443;59.792;17.626;2024-03-06T04:45:32;6.53;;;2.60;;
60612;SDS011;46443;59.792;17.626;2024-03-06T04:47:58;4.85;;;2.42;;
60612;SDS011;46443;59.792;17.626;2024-03-06T04:50:24;5.90;;;3.00;;
60612;SDS011;46443;59.792;17.626;2024-03-06T04:52:52;6.85;;;2.70;;
60612;SDS011;46443;59.792;17.626;2024-03-06T04:55:18;6.97;;;3.15;;
60612;SDS011;46443;59.792;17.626;2024-03-06T04:57:47;4.47;;;2.25;;
60612;SDS011;46443;59.792;17.626;2024-03-06T05:00:14;5.22;;;2.30;;
60612;SDS011;46443;59.792;17.626;2024-03-06T05:02:40;7.97;;;3.08;;
60612;SDS011;46443;59.792;17.626;2024-03-06T05:05:07;3.83;;;2.20;;
60612;SDS011;46443;59.792;17.626;2024-03-06T05:07:33;6.22;;;2.47;;
60612;SDS011;46443;59.792;17.626;2024-03-06T05:10:00;7.30;;;2.70;;
60612;SDS011;46443;59.792;17.626;2024-03-06T05:12:26;6.18;;;2.50;;
60612;SDS011;46443;59.792;17.626;2024-03-06T05:14:53;5.90;;;2.50;;
60612;SDS011;46443;59.792;17.626;2024-03-06T05:17:19;5.30;;;2.50;;
60612;SDS011;46443;59.792;17.626;2024-03-06T05:19:46;5.30;;;2.60;;
60612;SDS011;46443;59.792;17.626;2024-03-06T05:22:13;6.85;;;2.78;;
60612;SDS011;46443;59.792;17.626;2024-03-06T05:24:39;5.57;;;2.80;;
60612;SDS011;46443;59.792;17.626;2024-03-06T05:27:05;4.70;;;2.15;;
60612;SDS011;46443;59.792;17.626;2024-03-06T05:29:32;4.55;;;2.50;;
60612;SDS011;46443;59.792;17.626;2024-03-06T05:31:58;5.32;;;2.92;;
60612;SDS011;46443;59.792;17.626;2024-03-06T05:34:24;4.43;;;2.05;;
60612;SDS011;46443;59.792;17.626;2024-03-06T05:36:50;4.70;;;1.98;;
60612;SDS011;46443;59.792;17.626;2024-03-06T05:39:17;5.60;;;2.90;;
60612;SDS011;46443;59.792;17.626;2024-03-06T05:41:43;4.93;;;2.78;;
60612;SDS011;46443;59.792;17.626;2024-03-06T05:44:09;6.70;;;2.83;;
60612;SDS011;46443;59.792;17.626;2024-03-06T05:46:35;4.15;;;2.30;;
60612;SDS011;46443;59.792;17.626;2024-03-06T05:49:02;5.47;;;2.50;;
60612;SDS011;46443;59.792;17.626;2024-03-06T05:51:28;5.07;;;2.55;;
60612;SDS011;46443;59.792;17.626;2024-03-06T05:53:55;6.10;;;2.40;;
60612;SDS011;46443;59.792;17.626;2024-03-06T05:56:21;5.82;;;2.60;;
60612;SDS011;46443;59.792;17.626;2024-03-06T05:58:47;5.57;;;2.78;;
60612;SDS011;46443;59.792;17.626;2024-03-06T06:01:17;7.38;;;2.75;;
60612;SDS011;46443;59.792;17.626;2024-03-06T06:03:47;4.45;;;2.45;;
60612;SDS011;46443;59.792;17.626;2024-03-06T06:06:16;5.85;;;2.50;;
60612;SDS011;46443;59.792;17.626;2024-03-06T06:08:44;6.90;;;2.30;;
60612;SDS011;46443;59.792;17.626;2024-03-06T06:11:10;5.03;;;2.80;;
60612;SDS011;46443;59.792;17.626;2024-03-06T06:13:36;5.45;;;2.60;;
60612;SDS011;46443;59.792;17.626;2024-03-06T06:16:03;5.18;;;2.25;;
60612;SDS011;46443;59.792;17.626;2024-03-06T06:18:29;4.03;;;2.53;;
60612;SDS011;46443;59.792;17.626;2024-03-06T06:20:57;6.47;;;2.55;;
60612;SDS011;46443;59.792;17.626;2024-03-06T06:23:23;5.53;;;2.40;;
60612;SDS011;46443;59.792;17.626;2024-03-06T06:25:49;4.80;;;2.10;;
60612;SDS011;46443;59.792;17.626;2024-03-06T06:28:15;4.00;;;2.17;;
60612;SDS011;46443;59.792;17.626;2024-03-06T06:30:41;4.85;;;2.28;;
60612;SDS011;46443;59.792;17.626;2024-03-06T06:33:08;5.97;;;2.28;;
60612;SDS011;46443;59.792;17.626;2024-03-06T06:35:34;4.10;;;2.10;;
60612;SDS011;46443;59.792;17.626;2024-03-06T06:38:01;5.35;;;2.03;;
60612;SDS011;46443;59.792;17.626;2024-03-06T06:40:27;6.03;;;2.83;;
60612;SDS011;46443;59.792;17.626;2024-03-06T06:42:53;7.00;;;2.70;;
60612;SDS011;46443;59.792;17.626;2024-03-06T06:45:21;4.90;;;2.50;;
60612;SDS011;46443;59.792;17.626;2024-03-06T06:47:48;6.35;;;2.55;;
60612;SDS011;46443;59.792;17.626;2024-03-06T06:50:14;5.28;;;2.67;;
60612;SDS011;46443;59.792;17.626;2024-03-06T06:52:41;4.22;;;2.33;;
60612;SDS011;46443;59.792;17.626;2024-03-06T06:55:08;5.95;;;2.58;;
60612;SDS011;46443;59.792;17.626;2024-03-06T06:57:37;6.10;;;2.78;;
60612;SDS011;46443;59.792;17.626;2024-03-06T07:00:03;4.22;;;2.22;;
60612;SDS011;46443;59.792;17.626;2024-03-06T07:02:39;5.05;;;2.38;;
60612;SDS011;46443;59.792;17.626;2024-03-06T07:05:06;5.57;;;2.35;;
60612;SDS011;46443;59.792;17.626;2024-03-06T07:07:33;5.15;;;2.30;;
60612;SDS011;46443;59.792;17.626;2024-03-06T07:09:59;7.10;;;2.25;;
60612;SDS011;46443;59.792;17.626;2024-03-06T07:12:25;6.03;;;2.50;;
60612;SDS011;46443;59.792;17.626;2024-03-06T07:14:52;4.50;;;2.25;;
60612;SDS011;46443;59.792;17.626;2024-03-06T07:17:18;5.80;;;2.58;;
60612;SDS011;46443;59.792;17.626;2024-03-06T07:19:44;4.43;;;2.15;;
60612;SDS011;46443;59.792;17.626;2024-03-06T07:22:10;4.20;;;2.47;;
60612;SDS011;46443;59.792;17.626;2024-03-06T07:24:36;7.43;;;2.70;;
60612;SDS011;46443;59.792;17.626;2024-03-06T07:27:02;5.47;;;2.53;;
60612;SDS011;46443;59.792;17.626;2024-03-06T07:29:29;5.65;;;2.40;;
60612;SDS011;46443;59.792;17.626;2024-03-06T07:31:55;4.50;;;2.47;;
60612;SDS011;46443;59.792;17.626;2024-03-06T07:34:21;5.70;;;2.63;;
60612;SDS011;46443;59.792;17.626;2024-03-06T07:36:47;6.60;;;2.60;;
60612;SDS011;46443;59.792;17.626;2024-03-06T07:39:16;8.10;;;2.70;;
60612;SDS011;46443;59.792;17.626;2024-03-06T07:41:42;7.63;;;3.13;;
60612;SDS011;46443;59.792;17.626;2024-03-06T07:44:08;4.67;;;2.80;;
60612;SDS011;46443;59.792;17.626;2024-03-06T07:46:34;7.07;;;3.00;;
60612;SDS011;46443;59.792;17.626;2024-03-06T07:49:01;5.27;;;2.73;;
60612;SDS011;46443;59.792;17.626;2024-03-06T07:51:31;6.77;;;2.87;;
60612;SDS011;46443;59.792;17.626;2024-03-06T07:53:57;4.60;;;2.63;;
60612;SDS011;46443;59.792;17.626;2024-03-06T07:56:26;5.00;;;2.60;;
60612;SDS011;46443;59.792;17.626;2024-03-06T07:58:53;8.18;;;2.95;;
60612;SDS011;46443;59.792;17.626;2024-03-06T08:01:20;4.17;;;2.23;;
60612;SDS011;46443;59.792;17.626;2024-03-06T08:03:46;6.60;;;2.83;;
60612;SDS011;46443;59.792;17.626;2024-03-06T08:06:12;5.07;;;2.83;;
60612;SDS011;46443;59.792;17.626;2024-03-06T08:08:42;6.80;;;2.93;;
60612;SDS011;46443;59.792;17.626;2024-03-06T08:11:09;4.43;;;2.40;;
60612;SDS011;46443;59.792;17.626;2024-03-06T08:13:36;6.57;;;2.70;;
60612;SDS011;46443;59.792;17.626;2024-03-06T08:16:02;5.00;;;2.30;;
60612;SDS011;46443;59.792;17.626;2024-03-06T08:18:29;6.00;;;2.57;;
60612;SDS011;46443;59.792;17.626;2024-03-06T08:20:55;4.37;;;2.27;;
60612;SDS011;46443;59.792;17.626;2024-03-06T08:23:22;4.07;;;2.07;;
60612;SDS011;46443;59.792;17.626;2024-03-06T08:25:49;4.33;;;2.40;;
60612;SDS011;46443;59.792;17.626;2024-03-06T08:28:15;5.60;;;2.60;;
60612;SDS011;46443;59.792;17.626;2024-03-06T08:30:41;7.23;;;2.73;;
60612;SDS011;46443;59.792;17.626;2024-03-06T08:33:09;5.57;;;2.57;;
60612;SDS011;46443;59.792;17.626;2024-03-06T08:35:35;4.43;;;2.20;;
60612;SDS011;46443;59.792;17.626;2024-03-06T08:38:01;4.23;;;2.33;;
60612;SDS011;46443;59.792;17.626;2024-03-06T08:40:27;5.40;;;2.33;;
60612;SDS011;46443;59.792;17.626;2024-03-06T08:42:54;5.80;;;2.77;;
60612;SDS011;46443;59.792;17.626;2024-03-06T08:45:20;3.97;;;2.37;;
60612;SDS011;46443;59.792;17.626;2024-03-06T08:47:46;7.40;;;2.30;;
60612;SDS011;46443;59.792;17.626;2024-03-06T08:50:17;5.73;;;3.03;;
60612;SDS011;46443;59.792;17.626;2024-03-06T08:52:43;5.33;;;2.50;;
60612;SDS011;46443;59.792;17.626;2024-03-06T08:55:09;6.30;;;2.57;;
60612;SDS011;46443;59.792;17.626;2024-03-06T08:57:36;5.13;;;2.70;;
60612;SDS011;46443;59.792;17.626;2024-03-06T09:00:02;5.80;;;2.40;;
60612;SDS011;46443;59.792;17.626;2024-03-06T09:02:29;3.23;;;2.00;;
60612;SDS011;46443;59.792;17.626;2024-03-06T09:04:55;4.03;;;2.13;;
60612;SDS011;46443;59.792;17.626;2024-03-06T09:07:21;6.10;;;2.67;;
60612;SDS011;46443;59.792;17.626;2024-03-06T09:09:51;5.13;;;2.22;;
60612;SDS011;46443;59.792;17.626;2024-03-06T09:12:17;4.80;;;2.20;;
60612;SDS011;46443;59.792;17.626;2024-03-06T09:14:44;4.87;;;2.33;;
60612;SDS011;46443;59.792;17.626;2024-03-06T09:17:10;4.90;;;2.33;;
60612;SDS011;46443;59.792;17.626;2024-03-06T09:19:40;6.63;;;2.50;;
60612;SDS011;46443;59.792;17.626;2024-03-06T09:22:06;5.50;;;2.73;;
60612;SDS011;46443;59.792;17.626;2024-03-06T09:24:32;4.23;;;2.30;;
60612;SDS011;46443;59.792;17.626;2024-03-06T09:27:00;5.10;;;2.50;;
60612;SDS011;46443;59.792;17.626;2024-03-06T09:29:26;4.97;;;2.40;;
60612;SDS011;46443;59.792;17.626;2024-03-06T09:31:52;5.33;;;2.10;;
60612;SDS011;46443;59.792;17.626;2024-03-06T09:34:18;4.17;;;2.13;;
60612;SDS011;46443;59.792;17.626;2024-03-06T09:36:47;6.50;;;2.20;;
60612;SDS011;46443;59.792;17.626;2024-03-06T09:39:14;5.10;;;2.30;;
60612;SDS011;46443;59.792;17.626;2024-03-06T09:41:42;4.50;;;2.23;;
60612;SDS011;46443;59.792;17.626;2024-03-06T09:44:09;7.87;;;2.20;;
60612;SDS011;46443;59.792;17.626;2024-03-06T09:46:36;4.73;;;2.20;;
60612;SDS011;46443;59.792;17.626;2024-03-06T09:49:02;4.77;;;2.30;;
60612;SDS011;46443;59.792;17.626;2024-03-06T09:51:28;5.93;;;2.40;;
60612;SDS011;46443;59.792;17.626;2024-03-06T09:53:55;4.77;;;2.50;;
60612;SDS011;46443;59.792;17.626;2024-03-06T09:56:21;4.27;;;2.17;;
60612;SDS011;46443;59.792;17.626;2024-03-06T09:58:47;4.57;;;2.10;;
60612;SDS011;46443;59.792;17.626;2024-03-06T10:01:14;5.60;;;2.20;;
60612;SDS011;46443;59.792;17.626;2024-03-06T10:03:40;4.67;;;2.20;;
60612;SDS011;46443;59.792;17.626;2024-03-06T10:06:07;6.03;;;2.30;;
60612;SDS011;46443;59.792;17.626;2024-03-06T10:08:33;4.30;;;2.17;;
60612;SDS011;46443;59.792;17.626;2024-03-06T10:11:00;3.83;;;2.40;;
60612;SDS011;46443;59.792;17.626;2024-03-06T10:13:26;4.83;;;2.20;;
60612;SDS011;46443;59.792;17.626;2024-03-06T10:16:03;4.60;;;1.93;;
60612;SDS011;46443;59.792;17.626;2024-03-06T10:18:33;5.13;;;2.27;;
60612;SDS011;46443;59.792;17.626;2024-03-06T10:20:59;3.67;;;2.07;;
60612;SDS011;46443;59.792;17.626;2024-03-06T10:23:26;3.73;;;2.27;;
60612;SDS011;46443;59.792;17.626;2024-03-06T10:25:55;4.32;;;2.15;;
60612;SDS011;46443;59.792;17.626;2024-03-06T10:28:22;5.20;;;1.93;;
60612;SDS011;46443;59.792;17.626;2024-03-06T10:30:48;5.20;;;2.30;;
60612;SDS011;46443;59.792;17.626;2024-03-06T10:33:16;4.23;;;2.30;;
60612;SDS011;46443;59.792;17.626;2024-03-06T10:35:47;3.03;;;2.00;;
60612;SDS011;46443;59.792;17.626;2024-03-06T10:38:13;3.37;;;1.90;;
60612;SDS011;46443;59.792;17.626;2024-03-06T10:40:41;5.60;;;1.90;;
60612;SDS011;46443;59.792;17.626;2024-03-06T10:43:07;3.67;;;1.70;;
60612;SDS011;46443;59.792;17.626;2024-03-06T10:48:08;3.40;;;1.87;;
60612;SDS011;46443;59.792;17.626;2024-03-06T10:50:38;4.03;;;2.50;;
60612;SDS011;46443;59.792;17.626;2024-03-06T10:53:05;4.03;;;2.00;;
60612;SDS011;46443;59.792;17.626;2024-03-06T10:55:33;2.60;;;1.70;;
60612;SDS011;46443;59.792;17.626;2024-03-06T10:58:00;3.67;;;2.17;;
60612;SDS011;46443;59.792;17.626;2024-03-06T11:00:26;2.70;;;1.80;;
60612;SDS011;46443;59.792;17.626;2024-03-06T11:02:54;4.23;;;2.00;;
60612;SDS011;46443;59.792;17.626;2024-03-06T11:05:20;4.57;;;2.10;;
60612;SDS011;46443;59.792;17.626;2024-03-06T11:07:47;3.90;;;1.90;;
60612;SDS011;46443;59.792;17.626;2024-03-06T11:10:13;3.07;;;1.70;;
60612;SDS011;46443;59.792;17.626;2024-03-06T11:12:42;4.43;;;2.10;;
60612;SDS011;46443;59.792;17.626;2024-03-06T11:15:15;3.90;;;1.60;;
60612;SDS011;46443;59.792;17.626;2024-03-06T11:17:42;3.97;;;1.67;;
60612;SDS011;46443;59.792;17.626;2024-03-06T11:20:12;2.87;;;1.70;;
60612;SDS011;46443;59.792;17.626;2024-03-06T11:26:06;4.53;;;1.87;;
60612;SDS011;46443;59.792;17.626;2024-03-06T11:28:17;4.70;;;2.10;;
60612;SDS011;46443;59.792;17.626;2024-03-06T11:30:46;2.80;;;1.80;;
60612;SDS011;46443;59.792;17.626;2024-03-06T11:33:14;3.35;;;2.00;;
60612;SDS011;46443;59.792;17.626;2024-03-06T11:36:12;3.20;;;1.90;;
60612;SDS011;46443;59.792;17.626;2024-03-06T11:38:29;5.50;;;2.10;;
60612;SDS011;46443;59.792;17.626;2024-03-06T11:40:55;3.20;;;1.83;;
60612;SDS011;46443;59.792;17.626;2024-03-06T11:45:50;3.40;;;1.93;;
60612;SDS011;46443;59.792;17.626;2024-03-06T11:48:16;3.67;;;2.13;;
60612;SDS011;46443;59.792;17.626;2024-03-06T11:50:42;4.00;;;2.00;;
60612;SDS011;46443;59.792;17.626;2024-03-06T11:53:08;4.57;;;2.00;;
60612;SDS011;46443;59.792;17.626;2024-03-06T11:55:34;3.13;;;1.90;;
60612;SDS011;46443;59.792;17.626;2024-03-06T11:58:00;3.33;;;1.73;;
60612;SDS011;46443;59.792;17.626;2024-03-06T12:00:29;2.93;;;1.77;;
60612;SDS011;46443;59.792;17.626;2024-03-06T12:02:56;3.53;;;2.47;;
60612;SDS011;46443;59.792;17.626;2024-03-06T12:05:25;2.80;;;1.90;;
60612;SDS011;46443;59.792;17.626;2024-03-06T12:07:52;3.77;;;1.80;;
60612;SDS011;46443;59.792;17.626;2024-03-06T12:10:19;5.03;;;1.90;;
60612;SDS011;46443;59.792;17.626;2024-03-06T12:12:45;3.17;;;1.70;;
60612;SDS011;46443;59.792;17.626;2024-03-06T12:15:12;3.23;;;1.87;;
60612;SDS011;46443;59.792;17.626;2024-03-06T12:17:45;4.57;;;1.90;;
60612;SDS011;46443;59.792;17.626;2024-03-06T12:20:12;5.00;;;1.80;;
60612;SDS011;46443;59.792;17.626;2024-03-06T12:22:45;4.45;;;1.90;;
60612;SDS011;46443;59.792;17.626;2024-03-06T12:27:37;2.63;;;1.50;;
60612;SDS011;46443;59.792;17.626;2024-03-06T12:30:07;2.90;;;1.70;;
60612;SDS011;46443;59.792;17.626;2024-03-06T12:32:34;2.13;;;1.60;;
60612;SDS011;46443;59.792;17.626;2024-03-06T12:35:00;3.00;;;1.60;;
60612;SDS011;46443;59.792;17.626;2024-03-06T12:37:29;2.50;;;1.57;;
60612;SDS011;46443;59.792;17.626;2024-03-06T12:39:56;4.23;;;1.80;;
60612;SDS011;46443;59.792;17.626;2024-03-06T12:42:22;2.77;;;1.57;;
60612;SDS011;46443;59.792;17.626;2024-03-06T12:44:49;3.33;;;1.63;;
60612;SDS011;46443;59.792;17.626;2024-03-06T12:47:15;4.27;;;1.60;;
60612;SDS011;46443;59.792;17.626;2024-03-06T12:49:41;3.73;;;1.53;;
60612;SDS011;46443;59.792;17.626;2024-03-06T12:52:07;3.93;;;1.87;;
60612;SDS011;46443;59.792;17.626;2024-03-06T12:54:34;2.67;;;1.70;;
60612;SDS011;46443;59.792;17.626;2024-03-06T12:57:00;3.10;;;1.63;;
60612;SDS011;46443;59.792;17.626;2024-03-06T12:59:27;3.10;;;1.67;;
60612;SDS011;46443;59.792;17.626;2024-03-06T13:01:53;3.80;;;1.80;;
60612;SDS011;46443;59.792;17.626;2024-03-06T13:04:20;3.43;;;1.80;;
60612;SDS011;46443;59.792;17.626;2024-03-06T13:06:46;2.20;;;1.43;;
60612;SDS011;46443;59.792;17.626;2024-03-06T13:09:12;2.23;;;1.40;;
60612;SDS011;46443;59.792;17.626;2024-03-06T13:11:38;3.83;;;2.00;;
60612;SDS011;46443;59.792;17.626;2024-03-06T13:14:04;3.77;;;1.70;;
60612;SDS011;46443;59.792;17.626;2024-03-06T13:16:30;3.00;;;1.50;;
60612;SDS011;46443;59.792;17.626;2024-03-06T13:18:56;4.17;;;1.70;;
60612;SDS011;46443;59.792;17.626;2024-03-06T13:21:25;2.60;;;1.60;;
60612;SDS011;46443;59.792;17.626;2024-03-06T13:23:51;3.07;;;1.50;;
60612;SDS011;46443;59.792;17.626;2024-03-06T13:26:17;3.00;;;1.77;;
60612;SDS011;46443;59.792;17.626;2024-03-06T13:28:43;2.20;;;1.50;;
60612;SDS011;46443;59.792;17.626;2024-03-06T13:31:11;2.20;;;1.40;;
60612;SDS011;46443;59.792;17.626;2024-03-06T13:33:37;3.27;;;1.50;;
60612;SDS011;46443;59.792;17.626;2024-03-06T13:36:03;3.33;;;1.60;;
60612;SDS011;46443;59.792;17.626;2024-03-06T13:38:29;4.53;;;1.80;;
60612;SDS011;46443;59.792;17.626;2024-03-06T13:40:55;2.90;;;1.23;;
60612;SDS011;46443;59.792;17.626;2024-03-06T13:43:21;2.10;;;1.40;;
60612;SDS011;46443;59.792;17.626;2024-03-06T13:45:51;4.60;;;1.70;;
60612;SDS011;46443;59.792;17.626;2024-03-06T13:48:17;4.00;;;1.40;;
60612;SDS011;46443;59.792;17.626;2024-03-06T13:50:44;2.57;;;1.60;;
60612;SDS011;46443;59.792;17.626;2024-03-06T13:53:10;4.80;;;2.33;;
60612;SDS011;46443;59.792;17.626;2024-03-06T13:55:36;3.57;;;1.50;;
60612;SDS011;46443;59.792;17.626;2024-03-06T13:58:03;4.00;;;1.70;;
60612;SDS011;46443;59.792;17.626;2024-03-06T14:00:29;2.60;;;1.40;;
60612;SDS011;46443;59.792;17.626;2024-03-06T14:02:55;3.17;;;1.53;;
60612;SDS011;46443;59.792;17.626;2024-03-06T14:05:22;3.93;;;1.67;;
60612;SDS011;46443;59.792;17.626;2024-03-06T14:07:52;5.97;;;1.80;;
60612;SDS011;46443;59.792;17.626;2024-03-06T14:10:19;8.03;;;2.03;;
60612;SDS011;46443;59.792;17.626;2024-03-06T14:12:46;2.67;;;1.50;;
60612;SDS011;46443;59.792;17.626;2024-03-06T14:15:17;6.13;;;1.80;;
60612;SDS011;46443;59.792;17.626;2024-03-06T14:17:44;3.60;;;1.70;;
60612;SDS011;46443;59.792;17.626;2024-03-06T14:20:10;9.03;;;1.93;;
60612;SDS011;46443;59.792;17.626;2024-03-06T14:22:43;3.93;;;1.80;;
60612;SDS011;46443;59.792;17.626;2024-03-06T14:25:09;5.87;;;1.80;;
60612;SDS011;46443;59.792;17.626;2024-03-06T14:27:35;5.87;;;1.80;;
60612;SDS011;46443;59.792;17.626;2024-03-06T14:30:04;5.33;;;1.83;;
60612;SDS011;46443;59.792;17.626;2024-03-06T14:32:32;6.57;;;2.20;;
60612;SDS011;46443;59.792;17.626;2024-03-06T14:34:59;5.23;;;1.90;;
60612;SDS011;46443;59.792;17.626;2024-03-06T14:37:25;3.83;;;2.00;;
60612;SDS011;46443;59.792;17.626;2024-03-06T14:39:51;6.37;;;2.53;;
60612;SDS011;46443;59.792;17.626;2024-03-06T14:42:17;7.77;;;2.27;;